Time;durP1;ratioP1;P1;durP2;ratioP2;P2;SDS_P1;SDS_P2;PMS_P1;PMS_P2;Temp;Humidity;BMP_temperature;BMP_pressure;BME280_temperature;BME280_humidity;BME280_pressure;Samples;Min_cycle;Max_cycle;Signal;HPM_P1;HPM_P2
2022/08/06 00:01:06;;;;;;;0.50;0.47;;;;;;;15.78;55.25;102109.34;4962985;28;97325;-48
2022/08/06 00:03:31;;;;;;;0.57;0.43;;;;;;;15.77;55.15;102107.09;4961548;28;97191;-48
2022/08/06 00:05:57;;;;;;;0.50;0.50;;;;;;;15.73;55.37;102112.84;4959357;28;96944;-48
2022/08/06 00:08:22;;;;;;;1.00;0.83;;;;;;;15.70;55.24;102111.06;4959567;28;98540;-48
2022/08/06 00:10:48;;;;;;;1.10;0.60;;;;;;;15.66;55.25;102121.63;4961304;28;97421;-48
2022/08/06 00:13:13;;;;;;;0.60;0.60;;;;;;;15.65;55.43;102131.19;4953759;28;97521;-48
2022/08/06 00:15:38;;;;;;;0.70;0.63;;;;;;;15.62;55.46;102126.63;4961274;28;96873;-48
2022/08/06 00:18:04;;;;;;;0.57;0.57;;;;;;;15.61;55.51;102136.97;4955379;28;97602;-48
2022/08/06 00:20:30;;;;;;;1.37;0.50;;;;;;;15.61;55.61;102130.66;4960867;28;97757;-48
2022/08/06 00:22:55;;;;;;;0.60;0.60;;;;;;;15.60;55.65;102126.34;4961833;28;97359;-48
2022/08/06 00:25:21;;;;;;;0.60;0.50;;;;;;;15.58;55.67;102137.19;4963271;28;97000;-49
2022/08/06 00:27:46;;;;;;;0.60;0.60;;;;;;;15.58;55.70;102137.19;4955346;28;97258;-48
2022/08/06 00:30:12;;;;;;;0.77;0.50;;;;;;;15.55;55.67;102136.13;4957394;28;96975;-49
2022/08/06 00:32:37;;;;;;;0.60;0.60;;;;;;;15.52;55.72;102131.59;4955761;28;99118;-48
2022/08/06 00:35:04;;;;;;;0.80;0.57;;;;;;;15.49;55.68;102135.34;4959001;28;96879;-49
2022/08/06 00:37:31;;;;;;;0.70;0.60;;;;;;;15.45;55.54;102145.13;4954531;28;98227;-49
2022/08/06 00:40:00;;;;;;;0.67;0.67;;;;;;;15.40;55.73;102146.56;4957945;28;97316;-48
2022/08/06 00:42:27;;;;;;;0.57;0.50;;;;;;;15.36;55.77;102148.03;4958717;28;97282;-48
2022/08/06 00:44:52;;;;;;;0.50;0.50;;;;;;;15.33;55.68;102149.03;4959935;28;96830;-49
2022/08/06 00:47:17;;;;;;;0.80;0.70;;;;;;;15.29;55.52;102154.03;4958509;28;98879;-48
2022/08/06 00:49:43;;;;;;;0.50;0.50;;;;;;;15.25;55.67;102147.91;4959423;28;97401;-48
2022/08/06 00:52:08;;;;;;;0.67;0.67;;;;;;;15.23;55.72;102159.50;4959024;28;97259;-48
2022/08/06 00:54:33;;;;;;;0.93;0.70;;;;;;;15.22;55.55;102151.69;4957471;28;97263;-48
2022/08/06 00:56:59;;;;;;;0.50;0.47;;;;;;;15.17;55.73;102153.16;4954923;28;97499;-49
2022/08/06 00:59:24;;;;;;;0.50;0.43;;;;;;;15.13;55.68;102149.06;4958676;28;97279;-49
2022/08/06 01:01:49;;;;;;;3.80;0.60;;;;;;;15.10;55.77;102150.03;4956831;28;97175;-48
2022/08/06 01:04:15;;;;;;;0.60;0.50;;;;;;;15.07;55.77;102148.25;4961610;28;96974;-48
2022/08/06 01:06:40;;;;;;;0.70;0.67;;;;;;;15.05;55.67;102150.75;4961773;28;98149;-48
2022/08/06 01:09:06;;;;;;;0.57;0.50;;;;;;;15.04;55.64;102155.50;4959275;28;97080;-48
2022/08/06 01:11:32;;;;;;;0.60;0.60;;;;;;;14.99;55.62;102165.28;4960269;28;96936;-48
2022/08/06 01:13:57;;;;;;;2.00;0.60;;;;;;;14.93;55.63;102158.91;4958860;28;97352;-49
2022/08/06 01:16:49;;;;;;;1.10;0.50;;;;;;;14.84;56.14;102161.84;4960522;28;106434;-48
2022/08/06 01:19:42;;;;;;;0.60;0.60;;;;;;;14.78;56.48;102151.94;4957146;28;101702;-48
2022/08/06 01:22:16;;;;;;;0.90;0.50;;;;;;;14.72;56.03;102156.63;4961062;28;97148;-50
2022/08/06 01:25:02;;;;;;;1.07;0.50;;;;;;;14.74;56.43;102165.97;4961569;28;97233;-49
2022/08/06 01:27:42;;;;;;;1.20;0.60;;;;;;;14.70;55.94;102168.19;4961118;28;97657;-49
2022/08/06 01:30:13;;;;;;;0.70;0.70;;;;;;;14.67;56.27;102168.41;4961323;28;102271;-48
2022/08/06 01:32:50;;;;;;;0.60;0.50;;;;;;;14.67;56.65;102176.72;4959413;28;97402;-48
2022/08/06 01:35:26;;;;;;;1.00;0.50;;;;;;;14.65;56.59;102174.44;4960379;28;97019;-48
2022/08/06 01:37:59;;;;;;;1.13;0.50;;;;;;;14.64;56.50;102177.66;4960671;28;100544;-54
2022/08/06 01:40:30;;;;;;;0.50;0.43;;;;;;;14.60;56.38;102177.88;4959092;28;98079;-49
2022/08/06 01:42:57;;;;;;;0.50;0.40;;;;;;;14.59;56.43;102181.88;4962988;28;97344;-48
2022/08/06 01:45:27;;;;;;;0.90;0.50;;;;;;;14.58;56.21;102188.69;4962675;28;97191;-48
2022/08/06 01:47:58;;;;;;;1.53;0.50;;;;;;;14.55;56.66;102181.34;4962261;28;102253;-48
2022/08/06 01:50:31;;;;;;;0.60;0.50;;;;;;;14.55;56.63;102181.34;4963015;28;97343;-48
2022/08/06 01:53:01;;;;;;;0.53;0.50;;;;;;;14.54;56.35;102190.91;4960615;28;97213;-48
2022/08/06 01:55:30;;;;;;;0.50;0.40;;;;;;;14.51;56.23;102186.31;4957575;28;96842;-49
2022/08/06 01:57:59;;;;;;;0.93;0.70;;;;;;;14.46;56.40;102192.53;4958026;28;96931;-48
2022/08/06 02:00:25;;;;;;;0.87;0.70;;;;;;;14.43;56.51;102184.44;4959692;28;97201;-49
2022/08/06 02:02:51;;;;;;;1.40;0.80;;;;;;;14.42;56.47;102191.97;4958653;28;97537;-49
2022/08/06 02:05:19;;;;;;;0.73;0.60;;;;;;;14.39;56.31;102184.66;4956038;28;97404;-48
2022/08/06 02:07:49;;;;;;;0.50;0.50;;;;;;;14.36;56.43;102188.38;4960392;28;97536;-48
2022/08/06 02:10:18;;;;;;;0.60;0.50;;;;;;;14.32;56.53;102190.56;4958110;28;101571;-48
2022/08/06 02:12:46;;;;;;;2.13;0.70;;;;;;;14.32;56.49;102192.56;4960553;28;96912;-48
2022/08/06 02:15:16;;;;;;;4.80;0.60;;;;;;;14.33;56.41;102194.84;4958135;28;96907;-49
2022/08/06 02:17:49;;;;;;;0.90;0.70;;;;;;;14.30;56.38;102193.06;4960695;28;97492;-48
2022/08/06 02:20:17;;;;;;;0.73;0.73;;;;;;;14.25;56.16;102196.47;4956214;28;97298;-47
2022/08/06 02:22:45;;;;;;;0.60;0.60;;;;;;;14.20;56.24;102199.91;4955324;28;97175;-47
2022/08/06 02:25:13;;;;;;;0.60;0.60;;;;;;;14.15;56.44;102197.84;4954600;28;96952;-48
2022/08/06 02:27:43;;;;;;;0.77;0.77;;;;;;;14.16;56.58;102207.66;4957047;28;96927;-49
2022/08/06 02:30:10;;;;;;;0.60;0.60;;;;;;;14.15;56.59;102198.56;4960333;28;97373;-49
2022/08/06 02:32:36;;;;;;;0.57;0.57;;;;;;;14.13;56.52;102203.09;4960974;28;96926;-48
2022/08/06 02:35:01;;;;;;;0.80;0.67;;;;;;;14.14;56.77;102196.28;4959422;28;97628;-48
2022/08/06 02:37:32;;;;;;;0.50;0.50;;;;;;;14.15;56.92;102189.53;4956687;28;98565;-48
2022/08/06 02:40:11;;;;;;;2.60;0.60;;;;;;;14.13;57.26;102189.25;4953767;28;96974;-48
2022/08/06 02:42:47;;;;;;;0.63;0.63;;;;;;;14.09;56.98;102188.66;4953734;28;97860;-48
2022/08/06 02:45:35;;;;;;;0.43;0.40;;;;;;;14.07;57.27;102188.38;4956734;28;96895;-48
2022/08/06 02:48:10;;;;;;;0.73;0.60;;;;;;;14.04;57.12;102192.13;4952882;28;101821;-49
2022/08/06 02:50:40;;;;;;;0.57;0.57;;;;;;;14.00;56.64;102191.56;4958308;28;97255;-48
2022/08/06 02:53:11;;;;;;;0.50;0.50;;;;;;;13.95;56.63;102198.53;4962414;28;97135;-48
2022/08/06 02:55:42;;;;;;;1.00;0.70;;;;;;;13.85;56.60;102191.53;4960991;28;96760;-48
2022/08/06 02:58:15;;;;;;;0.70;0.50;;;;;;;13.84;56.94;102198.34;4960962;28;96947;-50
2022/08/06 03:00:44;;;;;;;0.50;0.40;;;;;;;13.83;56.86;102199.56;4956378;28;97244;-48
2022/08/06 03:03:13;;;;;;;1.07;0.50;;;;;;;13.84;56.87;102200.31;4955841;28;97473;-49
2022/08/06 03:05:40;;;;;;;0.50;0.50;;;;;;;13.84;56.71;102195.56;4956583;28;96953;-51
2022/08/06 03:08:09;;;;;;;0.60;0.57;;;;;;;13.83;56.92;102202.31;4963801;28;97133;-48
2022/08/06 03:10:36;;;;;;;0.50;0.50;;;;;;;13.80;57.21;102202.53;4959992;28;98626;-48
2022/08/06 03:13:04;;;;;;;1.23;0.60;;;;;;;13.80;56.95;102210.81;4959158;28;97327;-48
2022/08/06 03:15:33;;;;;;;1.80;0.50;;;;;;;13.77;56.89;102207.00;4960762;28;97042;-49
2022/08/06 03:18:00;;;;;;;1.83;0.60;;;;;;;13.77;57.19;102211.78;4962762;28;97435;-49
2022/08/06 03:20:26;;;;;;;0.70;0.70;;;;;;;13.76;57.02;102204.72;4958528;28;97549;-51
2022/08/06 03:22:54;;;;;;;0.50;0.50;;;;;;;13.76;57.03;102211.00;4960379;28;96709;-48
2022/08/06 03:25:20;;;;;;;0.60;0.60;;;;;;;13.74;57.16;102209.97;4955381;28;97069;-48
2022/08/06 03:27:47;;;;;;;1.27;0.60;;;;;;;13.72;57.13;102213.19;4960807;28;97507;-48
2022/08/06 03:30:15;;;;;;;0.70;0.70;;;;;;;13.74;57.19;102209.97;4959158;28;97014;-48
2022/08/06 03:32:41;;;;;;;1.40;0.70;;;;;;;13.74;57.15;102207.22;4960417;28;97533;-49
2022/08/06 03:35:08;;;;;;;2.20;0.77;;;;;;;13.69;56.96;102214.16;4961639;28;96762;-49
2022/08/06 03:37:35;;;;;;;0.80;0.80;;;;;;;13.66;57.00;102211.56;4959355;28;97420;-48
2022/08/06 03:40:03;;;;;;;1.03;0.70;;;;;;;13.65;57.29;102212.81;4959874;28;97486;-48
2022/08/06 03:42:28;;;;;;;1.33;0.70;;;;;;;13.67;57.35;102215.88;4962445;28;97062;-48
2022/08/06 03:44:54;;;;;;;1.60;0.90;;;;;;;13.69;57.42;102221.69;4957517;28;97422;-48
2022/08/06 03:47:32;;;;;;;0.60;0.60;;;;;;;13.70;57.65;102218.44;4956115;28;98735;-49
2022/08/06 03:50:15;;;;;;;1.13;1.03;;;;;;;13.70;58.13;102228.75;4960172;28;98370;-49
2022/08/06 03:52:47;;;;;;;0.80;0.60;;;;;;;13.70;57.57;102237.03;4963332;28;97288;-48
2022/08/06 03:55:17;;;;;;;1.00;0.80;;;;;;;13.69;57.40;102233.53;4958979;28;97416;-48
2022/08/06 03:57:47;;;;;;;0.80;0.80;;;;;;;13.72;57.56;102235.31;4961195;28;98525;-49
2022/08/06 04:00:15;;;;;;;1.03;0.93;;;;;;;13.70;57.46;102235.03;4960474;28;96910;-48
2022/08/06 04:02:45;;;;;;;1.60;1.03;;;;;;;13.72;57.77;102240.84;4958318;28;97238;-48
2022/08/06 04:05:14;;;;;;;0.90;0.90;;;;;;;13.75;57.57;102259.28;4960202;28;96884;-48
2022/08/06 04:07:40;;;;;;;1.47;0.80;;;;;;;13.77;57.76;102262.34;4959963;28;97389;-48
2022/08/06 04:10:06;;;;;;;1.47;0.80;;;;;;;13.79;57.56;102256.31;4958124;28;97195;-49
2022/08/06 04:12:32;;;;;;;0.70;0.50;;;;;;;13.78;57.60;102277.69;4955266;28;96921;-48
2022/08/06 04:14:59;;;;;;;0.80;0.80;;;;;;;13.80;57.80;102260.63;4964322;28;97099;-48
2022/08/06 04:17:26;;;;;;;1.20;0.70;;;;;;;13.79;57.65;102270.91;4957657;28;96925;-50
2022/08/06 04:19:53;;;;;;;1.80;0.60;;;;;;;13.78;57.50;102271.41;4962999;28;97425;-48
2022/08/06 04:22:20;;;;;;;1.07;0.73;;;;;;;13.76;57.68;102279.41;4958863;28;96962;-49
2022/08/06 04:24:45;;;;;;;0.90;0.90;;;;;;;13.77;57.56;102286.47;4964507;28;97481;-49
2022/08/06 04:27:13;;;;;;;0.73;0.73;;;;;;;13.75;57.63;102291.72;4955481;28;97506;-47
2022/08/06 04:29:40;;;;;;;0.70;0.60;;;;;;;13.74;57.55;102292.97;4957796;28;97391;-48
2022/08/06 04:32:07;;;;;;;0.67;0.67;;;;;;;13.73;57.67;102296.94;4959086;28;97291;-49
2022/08/06 04:34:35;;;;;;;0.50;0.40;;;;;;;13.74;57.53;102301.25;4959368;28;97962;-48
2022/08/06 04:37:01;;;;;;;0.70;0.70;;;;;;;13.73;57.64;102305.25;4959514;28;97001;-49
2022/08/06 04:39:28;;;;;;;0.60;0.60;;;;;;;13.73;57.60;102302.47;4960159;28;97334;-48
2022/08/06 04:41:54;;;;;;;2.17;0.80;;;;;;;13.71;57.77;102302.97;4956856;28;97166;-48
2022/08/06 04:44:20;;;;;;;0.77;0.63;;;;;;;13.72;57.90;102314.78;4956928;28;96868;-48
2022/08/06 04:46:49;;;;;;;0.70;0.70;;;;;;;13.73;57.90;102310.78;4963456;28;98158;-49
2022/08/06 04:49:15;;;;;;;0.80;0.57;;;;;;;13.71;57.73;102313.25;4958062;28;97406;-49
2022/08/06 04:51:45;;;;;;;4.20;1.00;;;;;;;13.72;58.01;102320.31;4961277;28;97448;-49
2022/08/06 04:54:11;;;;;;;0.67;0.67;;;;;;;13.72;58.00;102321.06;4960092;28;97528;-48
2022/08/06 04:56:37;;;;;;;0.63;0.63;;;;;;;13.74;58.16;102326.16;4959066;28;96831;-48
2022/08/06 04:59:02;;;;;;;1.00;0.73;;;;;;;13.77;58.01;102328.72;4957966;28;97165;-48
2022/08/06 05:01:28;;;;;;;2.10;0.57;;;;;;;13.83;58.06;102334.34;4960556;28;97271;-48
2022/08/06 05:03:53;;;;;;;0.50;0.40;;;;;;;13.85;58.18;102338.19;4961944;28;97464;-49
2022/08/06 05:06:31;;;;;;;1.63;0.60;;;;;;;13.90;58.30;102345.84;4961279;28;100193;-48
2022/08/06 05:09:02;;;;;;;0.77;0.70;;;;;;;13.90;58.30;102342.28;4960533;28;100359;-49
2022/08/06 05:11:34;;;;;;;1.57;0.50;;;;;;;13.90;58.05;102345.06;4961811;28;97130;-49
2022/08/06 05:14:04;;;;;;;1.00;0.70;;;;;;;13.93;58.26;102336.59;4961489;28;96880;-48
2022/08/06 05:16:34;;;;;;;0.80;0.53;;;;;;;13.95;58.23;102341.66;4958608;28;97425;-48
2022/08/06 05:19:09;;;;;;;0.70;0.70;;;;;;;13.99;58.36;102345.00;4963070;28;97204;-50
2022/08/06 05:21:38;;;;;;;0.57;0.57;;;;;;;14.02;58.04;102350.31;4943573;28;96950;-51
2022/08/06 05:24:04;;;;;;;2.03;0.67;;;;;;;14.04;58.24;102353.38;4935249;28;97774;-47
2022/08/06 05:26:30;;;;;;;1.10;0.60;;;;;;;14.09;58.28;102358.25;4955508;28;98186;-48
2022/08/06 05:28:56;;;;;;;1.23;0.70;;;;;;;14.14;58.21;102368.69;4958551;28;97468;-48
2022/08/06 05:31:39;;;;;;;3.07;0.80;;;;;;;14.21;59.10;102367.53;4961001;28;96837;-49
2022/08/06 05:34:09;;;;;;;0.50;0.50;;;;;;;14.26;58.40;102364.13;4959394;28;97196;-47
2022/08/06 05:36:34;;;;;;;0.57;0.57;;;;;;;14.32;58.33;102362.25;4945651;28;98743;-48
2022/08/06 05:38:59;;;;;;;0.77;0.77;;;;;;;14.38;58.36;102371.41;4960537;28;98775;-48
2022/08/06 05:41:26;;;;;;;0.50;0.50;;;;;;;14.44;58.23;102380.56;4957444;28;97378;-48
2022/08/06 05:43:51;;;;;;;0.63;0.63;;;;;;;14.52;58.44;102373.44;4959847;28;97064;-48
2022/08/06 05:46:20;;;;;;;2.10;0.63;;;;;;;14.58;58.37;102396.44;4958083;28;97336;-47
2022/08/06 05:48:54;;;;;;;1.30;0.80;;;;;;;14.66;58.71;102372.66;4960153;28;97326;-48
2022/08/06 05:51:28;;;;;;;0.90;0.80;;;;;;;14.72;58.87;102379.03;4954973;28;97420;-49
2022/08/06 05:54:01;;;;;;;0.80;0.80;;;;;;;14.80;58.90;102376.66;4957728;28;97367;-50
2022/08/06 05:56:38;;;;;;;0.90;0.90;;;;;;;14.89;59.10;102382.09;4956087;28;97022;-48
2022/08/06 05:59:10;;;;;;;1.47;0.80;;;;;;;14.96;58.71;102387.25;4958290;28;97302;-49
2022/08/06 06:01:37;;;;;;;1.00;0.73;;;;;;;15.06;58.70;102390.66;4956920;28;96868;-48
2022/08/06 06:04:03;;;;;;;1.03;0.70;;;;;;;15.15;58.70;102393.31;4956914;28;97403;-49
2022/08/06 06:06:30;;;;;;;1.17;1.07;;;;;;;15.24;58.66;102393.19;4959889;28;97469;-49
2022/08/06 06:08:55;;;;;;;1.87;0.90;;;;;;;15.35;58.73;102393.34;4957885;28;100280;-48
2022/08/06 06:11:22;;;;;;;0.70;0.57;;;;;;;15.43;58.84;102389.72;4959568;28;96990;-49
2022/08/06 06:13:48;;;;;;;0.80;0.77;;;;;;;15.53;58.65;102396.66;4958758;28;96766;-49
2022/08/06 06:16:40;;;;;;;1.47;1.10;;;;;;;15.61;59.36;102397.78;4957182;28;98608;-49
2022/08/06 06:19:28;;;;;;;0.83;0.83;;;;;;;15.71;58.77;102406.72;4958379;28;100205;-49
2022/08/06 06:21:53;;;;;;;0.63;0.63;;;;;;;15.78;58.69;102406.31;4940853;28;97569;-48
2022/08/06 06:24:22;;;;;;;1.00;1.00;;;;;;;15.87;58.93;102400.63;4956523;28;97568;-48
2022/08/06 06:26:47;;;;;;;2.23;1.10;;;;;;;15.97;58.67;102398.44;4956142;28;100578;-49
2022/08/06 06:29:38;;;;;;;1.50;1.03;;;;;;;16.06;58.88;102404.63;4957495;28;97318;-49
2022/08/06 06:32:17;;;;;;;0.90;0.73;;;;;;;16.14;59.03;102407.75;4957494;28;96918;-49
2022/08/06 06:34:51;;;;;;;0.80;0.80;;;;;;;16.22;58.78;102409.59;4957770;28;97020;-48
2022/08/06 06:38:10;;;;;;;1.37;0.60;;;;;;;16.33;59.12;102412.50;4952921;28;97029;-49
2022/08/06 06:41:13;;;;;;;0.60;0.60;;;;;;;16.43;58.56;102404.75;4913836;28;103377;-50
2022/08/06 06:44:02;;;;;;;0.90;0.73;;;;;;;16.56;59.02;102412.72;4879664;28;97434;-49
2022/08/06 06:46:39;;;;;;;0.70;0.70;;;;;;;16.67;58.71;102407.28;4949307;28;96853;-49
2022/08/06 06:49:31;;;;;;;1.90;0.80;;;;;;;16.79;58.58;102414.47;4956029;28;97473;-48
2022/08/06 06:52:05;;;;;;;1.33;0.70;;;;;;;16.88;58.25;102409.50;4958395;28;100344;-48
2022/08/06 06:54:43;;;;;;;1.93;0.80;;;;;;;17.00;58.31;102413.88;4955608;28;97131;-48
2022/08/06 06:57:11;;;;;;;0.80;0.70;;;;;;;17.12;57.94;102414.72;4959538;28;96893;-48
2022/08/06 06:59:43;;;;;;;0.80;0.80;;;;;;;17.24;57.90;102421.88;4952183;28;98531;-49
2022/08/06 07:02:16;;;;;;;2.20;0.60;;;;;;;17.34;57.81;102419.66;4953555;28;98453;-49
2022/08/06 07:04:43;;;;;;;1.60;0.53;;;;;;;17.43;57.65;102416.69;4952821;28;97542;-49
2022/08/06 07:07:09;;;;;;;1.40;0.70;;;;;;;17.55;57.54;102421.84;4953271;28;96816;-49
2022/08/06 07:09:36;;;;;;;1.33;0.40;;;;;;;17.67;57.58;102417.09;4948769;28;96894;-49
2022/08/06 07:12:02;;;;;;;1.63;0.50;;;;;;;17.76;57.47;102420.41;4958226;28;99648;-49
2022/08/06 07:14:30;;;;;;;0.60;0.40;;;;;;;17.86;57.34;102421.75;4958082;28;97189;-49
2022/08/06 07:16:58;;;;;;;0.60;0.50;;;;;;;17.94;57.23;102422.00;4956061;28;97225;-49
2022/08/06 07:19:25;;;;;;;1.40;0.47;;;;;;;18.02;57.04;102427.88;4958020;28;96858;-48
2022/08/06 07:21:51;;;;;;;0.50;0.40;;;;;;;18.10;56.85;102434.47;4954316;28;97104;-49
2022/08/06 07:24:17;;;;;;;0.80;0.40;;;;;;;18.19;56.98;102437.81;4956906;28;97055;-49
2022/08/06 07:26:44;;;;;;;1.03;0.50;;;;;;;18.26;56.55;102442.88;4955165;28;97402;-48
2022/08/06 07:29:11;;;;;;;2.87;0.40;;;;;;;18.30;56.22;102448.22;4956523;28;97967;-49
2022/08/06 07:31:37;;;;;;;1.40;0.40;;;;;;;18.33;56.23;102450.75;4954025;28;96984;-49
2022/08/06 07:34:04;;;;;;;0.60;0.40;;;;;;;18.38;56.02;102452.03;4958624;28;97168;-49
2022/08/06 07:36:37;;;;;;;0.90;0.40;;;;;;;18.43;55.69;102457.63;4959103;28;97270;-50
2022/08/06 07:39:08;;;;;;;0.43;0.30;;;;;;;18.54;55.51;102457.66;4961055;28;98730;-48
2022/08/06 07:41:34;;;;;;;1.03;0.40;;;;;;;18.64;55.43;102463.78;4961178;28;97135;-48
2022/08/06 07:44:02;;;;;;;0.80;0.50;;;;;;;18.77;55.41;102466.06;4964018;28;97124;-49
2022/08/06 07:46:39;;;;;;;0.50;0.30;;;;;;;18.87;55.00;102462.50;4960837;28;97150;-48
2022/08/06 07:49:06;;;;;;;0.50;0.40;;;;;;;19.02;55.12;102471.41;4956577;28;101776;-49
2022/08/06 07:51:38;;;;;;;0.67;0.40;;;;;;;19.11;54.80;102464.81;4962385;28;100240;-49
2022/08/06 07:54:06;;;;;;;0.60;0.50;;;;;;;19.21;54.67;102475.22;4958697;28;98992;-49
2022/08/06 07:56:35;;;;;;;0.57;0.50;;;;;;;19.31;54.47;102467.31;4956405;28;97458;-49
2022/08/06 07:59:02;;;;;;;1.10;0.40;;;;;;;19.42;54.47;102462.50;4958251;28;96996;-49
2022/08/06 08:01:28;;;;;;;0.50;0.40;;;;;;;19.50;53.99;102468.34;4948453;28;97004;-49
2022/08/06 08:06:39;;;;;;;0.60;0.40;;;;;;;19.58;53.33;102469.34;4958760;28;96804;-49
2022/08/06 08:09:14;;;;;;;0.50;0.40;;;;;;;19.70;52.84;102470.06;4958220;28;97520;-49
2022/08/06 08:11:41;;;;;;;0.60;0.30;;;;;;;19.80;53.28;102471.31;4958526;28;96923;-49
2022/08/06 08:14:09;;;;;;;2.10;0.40;;;;;;;19.88;53.02;102472.28;4956446;28;97411;-49
2022/08/06 08:16:36;;;;;;;0.67;0.37;;;;;;;19.97;52.65;102466.41;4958598;28;97042;-49
2022/08/06 08:19:01;;;;;;;3.33;0.47;;;;;;;20.07;53.00;102476.03;4958250;28;96929;-56
2022/08/06 08:21:28;;;;;;;1.87;0.50;;;;;;;20.15;52.14;102474.22;4957307;28;98714;-51
2022/08/06 08:23:55;;;;;;;0.60;0.50;;;;;;;20.13;51.56;102485.91;4947684;28;98793;-50
2022/08/06 08:26:20;;;;;;;1.20;0.50;;;;;;;20.12;51.47;102484.38;4955410;28;97104;-50
2022/08/06 08:28:45;;;;;;;0.50;0.30;;;;;;;20.22;51.51;102484.13;4956486;28;97303;-51
2022/08/06 08:31:13;;;;;;;0.73;0.40;;;;;;;20.23;51.10;102475.22;4959302;28;97600;-50
2022/08/06 08:33:39;;;;;;;1.17;0.50;;;;;;;20.28;50.46;102474.44;4958658;28;97147;-50
2022/08/06 08:36:05;;;;;;;0.70;0.40;;;;;;;20.32;50.34;102474.91;4958272;28;97960;-50
2022/08/06 08:38:33;;;;;;;0.73;0.30;;;;;;;20.35;50.35;102473.88;4957862;28;97175;-50
2022/08/06 08:41:26;;;;;;;1.53;0.43;;;;;;;20.53;48.71;102473.25;4957800;28;96842;-49
2022/08/06 08:44:07;;;;;;;4.20;0.40;;;;;;;20.69;49.63;102480.03;4954448;28;99464;-50
2022/08/06 08:46:37;;;;;;;4.43;0.40;;;;;;;20.78;50.08;102474.88;4954175;28;97130;-50
2022/08/06 08:49:04;;;;;;;0.70;0.40;;;;;;;20.87;49.66;102476.59;4955124;28;97405;-51
2022/08/06 08:51:32;;;;;;;0.90;0.30;;;;;;;20.95;49.87;102474.75;4956823;28;97307;-51
2022/08/06 08:54:00;;;;;;;0.60;0.30;;;;;;;21.07;49.40;102476.22;4958729;28;97123;-50
2022/08/06 08:56:26;;;;;;;0.70;0.30;;;;;;;21.16;49.16;102483.50;4955985;28;97045;-50
2022/08/06 08:58:51;;;;;;;1.00;0.40;;;;;;;21.21;48.80;102475.03;4955588;28;97685;-49
2022/08/06 09:01:18;;;;;;;0.70;0.40;;;;;;;21.36;48.55;102477.47;4955481;28;97155;-50
2022/08/06 09:03:44;;;;;;;0.70;0.50;;;;;;;21.49;48.41;102480.41;4956584;28;97150;-50
2022/08/06 09:06:10;;;;;;;0.60;0.40;;;;;;;21.63;48.35;102479.22;4961193;28;96920;-50
2022/08/06 09:08:38;;;;;;;0.50;0.30;;;;;;;21.73;48.47;102480.41;4961545;28;97613;-49
2022/08/06 09:11:05;;;;;;;0.67;0.40;;;;;;;21.82;48.44;102476.47;4956073;28;97234;-49
2022/08/06 09:13:31;;;;;;;0.67;0.30;;;;;;;21.98;48.08;102479.09;4954089;28;97127;-49
2022/08/06 09:15:57;;;;;;;1.13;0.30;;;;;;;22.07;47.96;102481.53;4955411;28;97219;-49
2022/08/06 09:18:24;;;;;;;0.90;0.40;;;;;;;22.12;47.51;102491.91;4958394;28;97364;-49
2022/08/06 09:20:51;;;;;;;0.50;0.40;;;;;;;22.05;47.31;102498.13;4956898;28;101593;-49
2022/08/06 09:23:17;;;;;;;0.60;0.30;;;;;;;22.07;47.65;102486.38;4959817;28;97001;-49
2022/08/06 09:25:43;;;;;;;0.50;0.30;;;;;;;22.17;47.23;102493.13;4958602;28;97369;-49
2022/08/06 09:28:11;;;;;;;1.73;0.70;;;;;;;22.17;46.30;102488.28;4960611;28;96926;-50
2022/08/06 09:30:38;;;;;;;0.93;0.40;;;;;;;22.21;46.36;102485.19;4961704;28;97075;-50
2022/08/06 09:33:10;;;;;;;0.80;0.40;;;;;;;22.35;46.25;102489.56;4958523;28;96895;-49
2022/08/06 09:35:36;;;;;;;0.50;0.30;;;;;;;22.58;46.58;102490.00;4953567;28;97235;-49
2022/08/06 09:38:08;;;;;;;1.07;0.50;;;;;;;22.80;45.25;102484.09;4952582;28;97096;-49
2022/08/06 09:40:33;;;;;;;0.50;0.30;;;;;;;22.85;45.50;102483.22;4960692;28;97544;-50
2022/08/06 09:42:59;;;;;;;0.70;0.40;;;;;;;23.02;45.60;102478.84;4957300;28;97488;-49
2022/08/06 09:45:25;;;;;;;0.60;0.40;;;;;;;23.21;45.31;102490.03;4959974;28;97290;-50
2022/08/06 09:48:08;;;;;;;0.70;0.40;;;;;;;23.36;43.36;102492.34;4958161;28;97378;-49
2022/08/06 09:50:38;;;;;;;0.50;0.40;;;;;;;23.50;44.89;102480.59;4960752;28;97609;-49
2022/08/06 09:53:04;;;;;;;0.60;0.40;;;;;;;23.69;44.42;102498.13;4956853;28;96816;-49
2022/08/06 09:55:31;;;;;;;0.60;0.40;;;;;;;23.84;44.16;102498.34;4959884;28;96930;-50
2022/08/06 09:57:56;;;;;;;0.60;0.30;;;;;;;23.90;43.79;102486.97;4955444;28;97470;-50
2022/08/06 10:00:31;;;;;;;0.93;0.30;;;;;;;23.72;42.56;102494.22;4958881;28;98423;-50
2022/08/06 10:03:02;;;;;;;0.60;0.40;;;;;;;23.72;42.94;102491.41;4959053;28;97079;-50
2022/08/06 10:05:29;;;;;;;1.03;0.50;;;;;;;23.79;43.12;102502.00;4954645;28;97071;-50
2022/08/06 10:08:12;;;;;;;0.70;0.43;;;;;;;23.83;42.29;102496.03;4956390;28;97510;-50
2022/08/06 10:10:39;;;;;;;0.60;0.40;;;;;;;23.94;43.49;102495.09;4958047;28;101470;-50
2022/08/06 10:13:23;;;;;;;0.60;0.40;;;;;;;23.83;42.07;102491.19;4961305;28;96748;-49
2022/08/06 10:15:49;;;;;;;0.73;0.40;;;;;;;23.67;43.54;102492.28;4958988;28;96784;-49
2022/08/06 10:18:44;;;;;;;0.50;0.30;;;;;;;23.58;41.97;102491.94;4958654;28;97386;-49
2022/08/06 10:21:12;;;;;;;0.70;0.60;;;;;;;23.65;43.44;102494.88;4953640;28;101474;-49
2022/08/06 10:23:40;;;;;;;0.60;0.40;;;;;;;23.80;42.81;102489.47;4954953;28;97053;-49
2022/08/06 10:26:11;;;;;;;0.53;0.43;;;;;;;23.96;41.58;102487.59;4956520;28;96978;-50
2022/08/06 10:28:39;;;;;;;1.63;0.50;;;;;;;24.05;42.30;102487.19;4956430;28;96875;-50
2022/08/06 10:31:08;;;;;;;0.60;0.40;;;;;;;24.20;42.08;102481.75;4954869;28;98713;-50
2022/08/06 10:33:48;;;;;;;0.73;0.40;;;;;;;24.14;40.71;102483.16;4959775;28;97583;-49
2022/08/06 10:36:15;;;;;;;0.90;0.40;;;;;;;24.03;41.93;102486.19;4957849;28;97020;-48
2022/08/06 10:38:45;;;;;;;1.10;0.60;;;;;;;24.13;42.04;102476.03;4956718;28;97549;-49
2022/08/06 10:41:12;;;;;;;0.50;0.30;;;;;;;24.20;41.41;102478.94;4960825;28;97332;-48
2022/08/06 10:43:39;;;;;;;0.50;0.30;;;;;;;24.30;41.73;102474.38;4954387;28;96799;-51
2022/08/06 10:46:07;;;;;;;0.50;0.30;;;;;;;24.27;41.00;102492.34;4955588;28;97145;-49
2022/08/06 10:48:37;;;;;;;0.60;0.30;;;;;;;24.09;40.12;102476.38;4957079;28;97037;-48
2022/08/06 10:51:05;;;;;;;0.80;0.50;;;;;;;23.93;41.27;102476.69;4955674;28;97357;-47
2022/08/06 10:53:32;;;;;;;0.60;0.37;;;;;;;23.84;41.26;102487.09;4961393;28;96991;-48
2022/08/06 10:56:01;;;;;;;1.07;0.63;;;;;;;23.76;41.92;102477.78;4957518;28;97369;-49
2022/08/06 10:58:29;;;;;;;0.90;0.47;;;;;;;23.77;41.42;102472.91;4955990;28;96989;-49
2022/08/06 11:00:56;;;;;;;0.50;0.30;;;;;;;24.00;41.14;102467.59;4957017;28;97163;-48
2022/08/06 11:03:40;;;;;;;1.33;0.50;;;;;;;24.29;39.63;102466.47;4956994;28;97407;-49
2022/08/06 11:06:17;;;;;;;1.17;0.40;;;;;;;24.49;39.02;102468.56;4955993;28;97329;-49
2022/08/06 11:09:08;;;;;;;1.57;0.40;;;;;;;24.36;38.99;102475.00;4959605;28;96684;-48
2022/08/06 11:11:51;;;;;;;0.60;0.40;;;;;;;24.24;39.09;102464.56;4955956;28;99935;-49
2022/08/06 11:14:18;;;;;;;1.33;0.30;;;;;;;24.12;40.19;102466.84;4960505;28;97339;-49
2022/08/06 11:16:53;;;;;;;0.60;0.40;;;;;;;23.92;39.62;102466.75;4961407;28;96772;-49
2022/08/06 11:19:38;;;;;;;3.63;0.40;;;;;;;24.02;39.56;102465.75;4965207;28;97465;-49
2022/08/06 11:22:03;;;;;;;0.60;0.30;;;;;;;24.19;39.90;102457.00;4961116;28;100107;-50
2022/08/06 11:24:29;;;;;;;0.60;0.40;;;;;;;24.20;40.06;102462.06;4955586;28;97867;-47
2022/08/06 11:26:55;;;;;;;1.20;0.40;;;;;;;24.21;39.84;102463.59;4958371;28;97194;-49
2022/08/06 11:29:20;;;;;;;0.60;0.30;;;;;;;24.23;39.83;102463.78;4959813;28;97062;-49
2022/08/06 11:31:48;;;;;;;0.60;0.30;;;;;;;24.22;39.84;102461.53;4959563;28;97496;-50
2022/08/06 11:34:19;;;;;;;0.50;0.30;;;;;;;24.11;39.26;102456.91;4958834;28;97168;-49
2022/08/06 11:37:02;;;;;;;0.70;0.30;;;;;;;24.02;38.16;102453.75;4958364;28;97468;-49
2022/08/06 11:39:27;;;;;;;0.60;0.40;;;;;;;23.92;39.65;102449.88;4958119;28;100798;-49